Time;durP1;ratioP1;P1;durP2;ratioP2;P2;SDS_P1;SDS_P2;PMS_P1;PMS_P2;Temp;Humidity;BMP_temperature;BMP_pressure;BME280_temperature;BME280_humidity;BME280_pressure;Samples;Min_cycle;Max_cycle;Signal;HPM_P1;HPM_P2
2022/10/06 00:02:51;;;;;;;2.90;0.70;;;;;;;15.23;100.00;101249.69;8355779;28;20045;-48
2022/10/06 00:06:51;;;;;;;2.25;0.73;;;;;;;15.25;100.00;101257.69;8356164;28;20041;-51
2022/10/06 00:10:55;;;;;;;7.65;1.00;;;;;;;15.34;100.00;101254.91;8353077;28;20035;-48
2022/10/06 00:14:55;;;;;;;4.43;1.20;;;;;;;15.45;100.00;101257.44;8353654;28;20043;-51
2022/10/06 00:18:57;;;;;;;6.10;1.15;;;;;;;15.57;100.00;101272.56;8346803;28;20041;-48
2022/10/06 00:22:58;;;;;;;3.92;0.68;;;;;;;15.66;100.00;101281.69;8357229;28;20037;-49
2022/10/06 00:26:59;;;;;;;4.15;0.88;;;;;;;15.71;100.00;101288.38;8368395;28;20151;-48
2022/10/06 00:31:00;;;;;;;4.25;0.80;;;;;;;15.77;100.00;101288.78;8361271;28;20037;-49
2022/10/06 00:35:01;;;;;;;7.70;1.65;;;;;;;15.80;100.00;101291.19;8361420;28;20045;-49
2022/10/06 00:39:02;;;;;;;6.65;0.85;;;;;;;15.86;100.00;101293.31;8360781;28;20124;-48
2022/10/06 00:43:05;;;;;;;5.65;1.00;;;;;;;15.97;100.00;101309.41;8361062;28;20529;-50
2022/10/06 00:47:05;;;;;;;3.65;1.20;;;;;;;15.99;100.00;101304.69;8361740;28;20498;-51
2022/10/06 00:51:06;;;;;;;5.13;1.00;;;;;;;15.96;100.00;101305.84;8361241;28;20437;-48
2022/10/06 00:55:08;;;;;;;8.82;1.00;;;;;;;15.89;100.00;101320.28;8361851;28;20045;-48
2022/10/06 00:59:15;;;;;;;6.07;1.23;;;;;;;15.85;100.00;101340.69;8361436;28;20029;-48
2022/10/06 01:03:23;;;;;;;5.18;0.90;;;;;;;15.77;100.00;101330.56;8361725;28;20045;-49
2022/10/06 01:07:27;;;;;;;4.65;1.48;;;;;;;15.66;100.00;101342.53;8361506;28;20491;-48
2022/10/06 01:11:28;;;;;;;2.78;0.70;;;;;;;15.59;100.00;101346.03;8361102;28;20037;-49
2022/10/06 01:15:28;;;;;;;6.70;1.23;;;;;;;15.53;100.00;101352.06;8361511;28;20040;-50
2022/10/06 01:19:48;;;;;;;4.95;0.95;;;;;;;15.49;100.00;101359.69;8360873;28;20041;-47
2022/10/06 01:23:49;;;;;;;3.03;0.90;;;;;;;15.40;100.00;101362.47;8360899;28;20552;-50
2022/10/06 01:27:52;;;;;;;11.07;1.30;;;;;;;15.29;100.00;101349.88;8360723;28;20043;-47
2022/10/06 01:31:56;;;;;;;5.68;0.90;;;;;;;15.30;100.00;101357.03;8360759;28;20454;-48
2022/10/06 01:35:57;;;;;;;10.38;1.35;;;;;;;15.20;100.00;101372.56;8360458;28;20048;-50
2022/10/06 01:39:58;;;;;;;10.32;1.00;;;;;;;15.13;100.00;101382.31;8360435;28;20040;-48
2022/10/06 01:43:59;;;;;;;7.00;1.55;;;;;;;15.10;100.00;101382.63;8360965;28;20032;-47
2022/10/06 01:48:02;;;;;;;5.43;1.30;;;;;;;15.08;100.00;101395.56;8353603;28;20036;-50
2022/10/06 01:52:04;;;;;;;5.38;1.13;;;;;;;14.94;100.00;101395.13;8359390;28;20057;-51
2022/10/06 01:56:05;;;;;;;10.02;1.13;;;;;;;14.97;100.00;101397.56;8360401;28;20044;-48
2022/10/06 02:00:06;;;;;;;9.23;1.35;;;;;;;14.91;100.00;101404.47;8359368;28;20050;-47
2022/10/06 02:04:25;;;;;;;12.07;2.05;;;;;;;14.89;100.00;101411.06;8387341;27;20379;-49
2022/10/06 02:08:27;;;;;;;9.43;1.33;;;;;;;14.86;100.00;101423.13;8385938;28;20063;-47
2022/10/06 02:12:31;;;;;;;8.60;1.23;;;;;;;14.87;100.00;101424.84;8384177;28;20459;-49
2022/10/06 02:16:34;;;;;;;11.02;1.85;;;;;;;14.86;100.00;101428.56;8414182;27;20044;-49
2022/10/06 02:20:35;;;;;;;7.43;1.20;;;;;;;14.76;100.00;101433.16;8417447;27;20033;-50
2022/10/06 02:24:36;;;;;;;11.85;1.80;;;;;;;14.83;99.87;101433.44;8419424;27;20127;-51
2022/10/06 02:28:37;;;;;;;7.82;1.40;;;;;;;14.79;99.38;101443.75;8418978;27;20382;-50
2022/10/06 02:32:42;;;;;;;13.98;1.67;;;;;;;14.71;99.29;101443.63;8418811;27;20044;-49
2022/10/06 02:36:44;;;;;;;9.35;1.63;;;;;;;14.68;98.97;101441.19;8418786;27;20127;-49
2022/10/06 02:40:45;;;;;;;13.55;1.88;;;;;;;14.58;99.31;101456.66;8417969;27;20085;-50
2022/10/06 02:44:45;;;;;;;10.23;1.27;;;;;;;14.49;99.59;101457.50;8417690;27;20036;-49
2022/10/06 02:48:46;;;;;;;12.60;1.30;;;;;;;14.40;99.63;101463.84;8399046;27;20074;-48
2022/10/06 02:52:47;;;;;;;10.32;1.75;;;;;;;14.35;99.50;101466.09;8383922;28;20037;-50
2022/10/06 02:56:49;;;;;;;12.45;1.90;;;;;;;14.33;98.75;101473.53;8384887;28;20040;-52
2022/10/06 03:00:50;;;;;;;11.32;1.73;;;;;;;14.32;97.80;101482.72;8383506;28;20052;-49
2022/10/06 03:04:51;;;;;;;11.70;1.45;;;;;;;14.23;97.76;101491.72;8383897;28;20057;-51
2022/10/06 03:09:00;;;;;;;10.98;1.52;;;;;;;14.15;97.57;101487.97;8383246;28;20041;-52
2022/10/06 03:13:00;;;;;;;9.10;1.60;;;;;;;14.11;97.32;101494.66;8376772;28;20106;-50
2022/10/06 03:17:02;;;;;;;14.00;2.22;;;;;;;14.04;97.55;101510.69;8360954;28;20506;-49
2022/10/06 03:21:04;;;;;;;14.95;1.95;;;;;;;14.11;95.59;101511.84;8360609;28;20062;-49
2022/10/06 03:25:05;;;;;;;15.63;2.30;;;;;;;14.03;95.74;101514.38;8360970;28;20049;-49
2022/10/06 03:29:06;;;;;;;12.77;1.75;;;;;;;14.00;95.89;101528.25;8360521;28;20518;-51
2022/10/06 03:33:08;;;;;;;15.18;1.33;;;;;;;13.92;95.68;101524.50;8360906;28;20411;-49
2022/10/06 03:37:08;;;;;;;12.55;1.42;;;;;;;13.86;96.21;101534.06;8361220;28;20035;-48
2022/10/06 03:41:13;;;;;;;12.15;2.00;;;;;;;13.71;96.66;101549.03;8360844;28;20755;-52
2022/10/06 03:45:16;;;;;;;12.40;1.92;;;;;;;13.67;97.51;101553.03;8359030;28;20037;-49
2022/10/06 03:49:17;;;;;;;15.05;1.38;;;;;;;13.64;98.17;101561.44;8360753;28;20494;-49
2022/10/06 03:53:17;;;;;;;8.75;1.45;;;;;;;13.64;97.80;101572.31;8359889;28;20414;-53
2022/10/06 03:57:18;;;;;;;12.40;1.50;;;;;;;13.58;98.36;101578.28;8360944;28;20033;-50
2022/10/06 04:01:22;;;;;;;14.18;1.80;;;;;;;13.49;98.70;101581.81;8352977;28;20044;-48
2022/10/06 04:05:23;;;;;;;13.53;2.00;;;;;;;13.50;98.17;101583.50;8360016;28;20037;-50
2022/10/06 04:09:23;;;;;;;15.88;1.40;;;;;;;13.52;97.10;101589.69;8358400;28;20555;-48
2022/10/06 04:13:25;;;;;;;13.10;2.30;;;;;;;13.45;97.31;101597.50;8349809;28;20056;-49
2022/10/06 04:17:25;;;;;;;16.08;1.83;;;;;;;13.39;96.95;101611.59;8357876;28;20033;-49
2022/10/06 04:21:28;;;;;;;16.65;1.60;;;;;;;13.34;97.37;101613.00;8355282;28;20442;-50
2022/10/06 04:25:30;;;;;;;11.15;2.45;;;;;;;13.26;96.73;101619.09;8354473;28;20072;-49
2022/10/06 04:29:32;;;;;;;15.85;2.20;;;;;;;13.20;97.16;101629.59;8382209;28;20044;-49
2022/10/06 04:33:33;;;;;;;16.48;2.05;;;;;;;13.22;96.84;101630.34;8349294;28;20032;-50
2022/10/06 04:37:35;;;;;;;17.25;2.10;;;;;;;13.16;96.11;101644.44;8355285;28;20029;-48
2022/10/06 04:41:39;;;;;;;14.43;2.60;;;;;;;13.13;95.99;101653.72;8355285;28;20120;-48
2022/10/06 04:45:40;;;;;;;8.93;1.90;;;;;;;13.09;96.00;101662.25;8352745;28;20072;-49
2022/10/06 04:49:41;;;;;;;21.45;2.55;;;;;;;12.99;96.18;101670.28;8348456;28;20041;-52
2022/10/06 04:53:43;;;;;;;13.25;2.17;;;;;;;12.98;96.54;101675.81;8352735;28;20086;-49
2022/10/06 04:57:45;;;;;;;11.40;1.73;;;;;;;12.86;96.55;101682.25;8354926;28;20045;-49
2022/10/06 05:01:46;;;;;;;15.73;2.10;;;;;;;12.84;96.71;101695.13;8354205;28;20049;-52
2022/10/06 05:05:48;;;;;;;14.55;1.50;;;;;;;12.68;96.96;101687.34;8354593;28;20037;-49
2022/10/06 05:09:49;;;;;;;22.13;2.60;;;;;;;12.63;97.44;101691.44;8354413;28;20037;-49
2022/10/06 05:13:53;;;;;;;12.85;2.28;;;;;;;12.54;97.20;101705.75;8354243;28;20056;-48
2022/10/06 05:17:55;;;;;;;17.35;2.08;;;;;;;12.40;97.68;101706.00;8354659;28;20032;-49
2022/10/06 05:21:56;;;;;;;14.55;1.70;;;;;;;12.26;99.41;101719.81;8353897;28;20159;-50
2022/10/06 05:26:00;;;;;;;17.98;2.15;;;;;;;12.15;99.85;101722.50;8346010;28;20045;-49
2022/10/06 05:30:02;;;;;;;20.88;2.72;;;;;;;12.09;100.00;101725.69;8349949;28;20033;-49
2022/10/06 05:34:03;;;;;;;12.55;2.05;;;;;;;12.02;100.00;101732.59;8354670;28;20098;-49
2022/10/06 05:38:04;;;;;;;14.25;2.25;;;;;;;11.86;100.00;101747.31;8346291;28;20045;-49
2022/10/06 05:42:05;;;;;;;15.82;1.95;;;;;;;11.83;100.00;101755.69;8353561;28;20167;-51
2022/10/06 05:46:16;;;;;;;17.85;2.80;;;;;;;11.87;100.00;101765.31;8351073;28;20222;-49
2022/10/06 05:50:17;;;;;;;16.92;2.25;;;;;;;11.86;100.00;101763.59;8385649;28;20398;-50
2022/10/06 05:54:17;;;;;;;15.00;2.03;;;;;;;11.74;100.00;101777.19;8376607;28;20055;-49
2022/10/06 05:58:18;;;;;;;15.07;2.05;;;;;;;11.61;100.00;101785.38;8386316;28;20083;-51
2022/10/06 06:02:20;;;;;;;19.80;2.60;;;;;;;11.92;100.00;101791.22;8384049;28;20041;-49
2022/10/06 06:06:24;;;;;;;11.82;2.33;;;;;;;12.15;97.99;101798.41;8383191;28;20041;-49
2022/10/06 06:10:27;;;;;;;16.30;2.25;;;;;;;12.25;96.85;101805.72;8386202;28;20083;-49
2022/10/06 06:15:59;;;;;;;16.77;2.45;;;;;;;12.16;97.20;101810.97;8363334;28;20517;-48
2022/10/06 06:18:53;;;;;;;12.27;1.73;;;;;;;12.16;97.99;101814.56;8347235;28;20033;-49
2022/10/06 06:22:55;;;;;;;17.50;2.22;;;;;;;12.16;97.38;101821.81;8355918;28;20049;-49
2022/10/06 06:26:59;;;;;;;17.13;2.72;;;;;;;12.31;96.85;101826.03;8353680;28;20074;-50
2022/10/06 06:31:03;;;;;;;11.25;2.40;;;;;;;12.62;94.55;101828.94;8349500;28;20037;-49
2022/10/06 06:35:04;;;;;;;16.33;2.30;;;;;;;12.85;93.34;101829.81;8322230;28;20041;-49
2022/10/06 06:39:08;;;;;;;14.55;1.85;;;;;;;12.88;92.60;101833.16;8362218;28;20048;-49
2022/10/06 06:43:11;;;;;;;14.63;2.17;;;;;;;13.05;92.13;101838.13;8347974;28;20037;-50
2022/10/06 06:47:27;;;;;;;21.80;2.60;;;;;;;13.19;91.15;101842.44;8341670;28;20040;-48
2022/10/06 06:51:32;;;;;;;18.92;2.10;;;;;;;13.33;91.36;101850.31;8347430;28;20179;-50
2022/10/06 06:55:32;;;;;;;10.65;1.88;;;;;;;13.54;90.47;101843.97;8345098;28;20403;-49
2022/10/06 06:59:34;;;;;;;17.90;2.28;;;;;;;13.85;89.39;101855.88;8344680;28;20075;-48
2022/10/06 07:03:35;;;;;;;13.07;2.20;;;;;;;13.93;89.02;101860.69;8353346;28;20041;-51
2022/10/06 07:07:36;;;;;;;12.77;2.13;;;;;;;13.88;89.65;101860.19;8372206;28;20041;-52
2022/10/06 07:11:38;;;;;;;14.35;2.22;;;;;;;14.14;88.85;101877.88;8355268;28;20502;-49
2022/10/06 07:25:14;;;;;;;17.65;2.45;;;;;;;14.89;86.39;101899.38;8356621;28;20487;-52
2022/10/06 07:28:52;;;;;;;14.88;2.80;;;;;;;14.97;86.53;101917.75;8356809;28;20793;-49
2022/10/06 07:32:54;;;;;;;23.92;2.67;;;;;;;15.11;86.25;101915.56;8355752;28;20032;-51
2022/10/06 07:36:56;;;;;;;19.48;2.67;;;;;;;15.26;85.98;101919.66;8355780;28;20362;-52
2022/10/06 07:40:57;;;;;;;18.35;2.35;;;;;;;15.39;85.01;101925.75;8354877;28;20154;-49
2022/10/06 07:46:02;;;;;;;17.27;2.45;;;;;;;15.53;83.16;101933.53;8360713;28;20722;-49
2022/10/06 07:49:22;;;;;;;19.30;2.25;;;;;;;15.58;82.48;101939.47;8349711;28;20047;-51
2022/10/06 07:53:27;;;;;;;20.20;2.90;;;;;;;15.69;82.11;101939.38;8352622;28;20499;-50
2022/10/06 07:57:34;;;;;;;12.10;2.45;;;;;;;15.75;81.60;101935.22;8352163;28;20037;-51
2022/10/06 08:01:34;;;;;;;20.15;3.20;;;;;;;15.99;82.11;101948.47;8377409;28;20073;-50
2022/10/06 08:05:35;;;;;;;20.48;2.42;;;;;;;16.21;81.93;101950.94;8384709;28;20037;-50
2022/10/06 08:09:36;;;;;;;10.15;1.80;;;;;;;16.50;81.19;101951.88;8388071;28;20054;-52
2022/10/06 08:13:41;;;;;;;16.77;2.90;;;;;;;16.40;79.41;101953.69;8367694;28;20542;-49
2022/10/06 08:17:41;;;;;;;18.98;2.65;;;;;;;16.39;78.99;101962.88;8337538;28;20045;-49
2022/10/06 08:21:42;;;;;;;14.32;2.70;;;;;;;16.46;79.65;101964.06;8346094;28;20148;-49
2022/10/06 08:25:50;;;;;;;18.90;2.65;;;;;;;16.68;78.10;101969.25;8387381;28;20123;-50
2022/10/06 08:29:50;;;;;;;19.40;2.28;;;;;;;16.78;77.52;101970.09;8361327;28;20053;-49
2022/10/06 08:33:55;;;;;;;11.68;2.20;;;;;;;17.09;75.79;101971.63;8355155;28;20489;-47
2022/10/06 08:37:56;;;;;;;37.45;2.60;;;;;;;17.55;77.81;101971.66;8352426;28;20114;-52
2022/10/06 08:41:57;;;;;;;21.73;2.67;;;;;;;17.90;75.24;101974.50;8360589;28;20522;-49
2022/10/06 08:46:02;;;;;;;14.32;2.13;;;;;;;17.89;73.06;101982.88;8354422;28;20033;-50
2022/10/06 08:50:09;;;;;;;24.08;2.22;;;;;;;17.92;73.64;101999.88;8353092;28;20040;-49
2022/10/06 08:54:16;;;;;;;14.82;2.95;;;;;;;17.93;73.64;101998.00;8343135;28;20070;-49
2022/10/06 08:58:53;;;;;;;12.77;2.42;;;;;;;18.20;73.25;101998.00;8349985;28;20418;-51
2022/10/06 09:02:54;;;;;;;13.25;1.90;;;;;;;19.26;69.67;102003.34;8344999;28;20061;-49
2022/10/06 09:07:03;;;;;;;11.48;1.85;;;;;;;20.86;62.65;102002.28;8348786;28;20041;-52
2022/10/06 09:11:43;;;;;;;13.00;2.25;;;;;;;22.55;58.29;102000.81;8349083;28;20139;-49
2022/10/06 09:15:52;;;;;;;9.50;1.70;;;;;;;23.27;54.85;102012.34;8353284;28;20037;-51
2022/10/06 09:24:14;;;;;;;10.68;1.80;;;;;;;23.33;53.71;102022.66;8347967;27;20406;-50
2022/10/06 09:28:15;;;;;;;11.63;1.40;;;;;;;23.45;52.77;102027.50;8312328;28;20042;-50
2022/10/06 09:32:18;;;;;;;12.48;1.70;;;;;;;23.94;53.06;102036.16;8310180;28;20442;-50
2022/10/06 09:36:19;;;;;;;11.40;1.40;;;;;;;24.76;51.63;102033.00;8305288;28;20399;-49
2022/10/06 09:40:36;;;;;;;10.35;1.50;;;;;;;24.38;51.48;102031.47;8297528;28;20046;-48
2022/10/06 09:45:00;;;;;;;11.02;2.28;;;;;;;24.45;51.69;102035.16;8291349;28;20038;-50
2022/10/06 09:49:19;;;;;;;5.85;1.63;;;;;;;25.14;51.33;102031.72;8280022;28;20198;-52
2022/10/06 09:53:20;;;;;;;9.13;1.73;;;;;;;25.38;51.35;102036.00;8305936;28;20057;-49
2022/10/06 09:57:25;;;;;;;16.50;2.10;;;;;;;25.42;50.47;102035.41;8335811;28;20037;-52
2022/10/06 10:01:28;;;;;;;10.63;1.58;;;;;;;25.11;51.10;102037.66;8315999;28;20093;-53
2022/10/06 10:05:32;;;;;;;8.20;1.65;;;;;;;25.65;48.07;102038.78;8299955;28;20048;-51
2022/10/06 10:09:32;;;;;;;12.93;1.27;;;;;;;26.20;47.79;102040.66;8310360;28;20396;-49
2022/10/06 10:13:42;;;;;;;8.73;1.35;;;;;;;25.98;47.12;102033.50;8307825;28;20062;-52
2022/10/06 10:17:55;;;;;;;12.02;1.30;;;;;;;25.00;48.43;102039.03;8313408;28;20062;-49
2022/10/06 10:21:56;;;;;;;10.40;1.60;;;;;;;25.80;47.63;102036.75;8307675;28;20099;-49
2022/10/06 10:26:25;;;;;;;7.82;1.33;;;;;;;26.10;46.08;102040.19;8306722;28;20042;-52
2022/10/06 10:30:27;;;;;;;7.03;1.63;;;;;;;26.62;45.89;102038.50;8308497;28;20049;-53
2022/10/06 10:34:57;;;;;;;7.15;1.40;;;;;;;26.30;47.40;102039.22;8271708;28;20034;-52
2022/10/06 10:39:00;;;;;;;8.63;1.40;;;;;;;26.75;45.64;102038.53;8258507;28;20137;-50
2022/10/06 10:43:29;;;;;;;9.93;1.33;;;;;;;26.83;44.36;102046.69;8282712;28;20243;-50
2022/10/06 10:47:37;;;;;;;9.23;1.40;;;;;;;25.84;46.16;102045.50;8299472;28;20091;-49
2022/10/06 10:55:52;;;;;;;9.43;1.67;;;;;;;25.74;46.28;102040.31;8394266;27;20387;-49
2022/10/06 10:59:59;;;;;;;7.43;1.52;;;;;;;27.40;44.76;102045.28;8357923;28;20274;-51
2022/10/06 11:04:01;;;;;;;8.15;1.40;;;;;;;27.49;43.54;102041.22;8348059;28;20090;-49
2022/10/06 11:08:41;;;;;;;7.88;2.00;;;;;;;28.00;43.90;102053.41;8347291;28;20167;-49
2022/10/06 11:13:22;;;;;;;8.55;1.90;;;;;;;27.50;43.24;102042.97;8340021;28;20037;-53
2022/10/06 11:22:02;;;;;;;7.35;1.42;;;;;;;27.78;42.31;102049.13;8396828;27;20776;-48
2022/10/06 11:26:25;;;;;;;5.88;1.67;;;;;;;27.81;42.35;102041.19;8355043;28;20530;-50
2022/10/06 11:30:26;;;;;;;8.85;1.10;;;;;;;27.59;41.37;102047.22;8369802;28;20029;-51
2022/10/06 11:34:27;;;;;;;9.18;1.50;;;;;;;27.25;41.19;102051.06;8369319;27;20055;-50
2022/10/06 11:38:41;;;;;;;8.68;1.55;;;;;;;27.42;42.90;102045.94;8374889;28;20044;-50
2022/10/06 11:42:48;;;;;;;4.15;1.23;;;;;;;27.51;41.39;102048.31;8409735;28;20444;-49
2022/10/06 11:46:57;;;;;;;4.30;1.15;;;;;;;27.23;42.19;102041.22;8366387;28;20048;-52
2022/10/06 11:55:36;;;;;;;7.28;1.42;;;;;;;27.68;40.34;102041.22;8408696;27;20388;-49
2022/10/06 11:59:37;;;;;;;7.80;1.00;;;;;;;26.90;40.37;102034.75;8363367;28;20042;-49
2022/10/06 12:03:47;;;;;;;6.57;1.23;;;;;;;27.18;40.62;102029.88;8361800;28;20036;-50
2022/10/06 12:12:29;;;;;;;4.90;1.42;;;;;;;26.94;40.96;102020.22;8401159;27;20442;-49
2022/10/06 12:16:37;;;;;;;6.90;1.33;;;;;;;28.31;39.09;102026.56;8391438;28;20037;-53
2022/10/06 12:25:20;;;;;;;5.70;1.63;;;;;;;27.52;40.18;102018.56;8372841;27;20978;-52
2022/10/06 12:29:48;;;;;;;8.57;1.38;;;;;;;27.26;39.81;102016.66;8348721;28;20045;-50
2022/10/06 12:33:49;;;;;;;7.30;1.25;;;;;;;26.83;40.29;102014.44;8350454;28;20040;-51
2022/10/06 12:37:53;;;;;;;7.57;1.50;;;;;;;26.68;40.69;102015.47;8346016;28;20399;-51
2022/10/06 12:42:00;;;;;;;7.00;1.27;;;;;;;25.71;42.11;102007.47;8351382;28;20044;-51
2022/10/06 12:46:15;;;;;;;7.65;1.50;;;;;;;23.60;45.50;102008.22;8368548;28;20502;-49
2022/10/06 12:50:24;;;;;;;6.60;1.40;;;;;;;22.10;47.94;102002.59;8358836;28;20040;-48
2022/10/06 12:54:38;;;;;;;6.70;1.17;;;;;;;21.21;49.82;101996.44;8350870;28;20051;-51
2022/10/06 12:58:41;;;;;;;4.05;1.13;;;;;;;20.77;49.38;101993.13;8388614;27;20048;-49
2022/10/06 13:02:43;;;;;;;7.85;1.13;;;;;;;20.74;49.50;101987.97;8357752;27;20509;-50
2022/10/06 13:06:48;;;;;;;7.43;1.02;;;;;;;20.63;49.49;101990.22;8367761;27;20416;-50
2022/10/06 13:10:49;;;;;;;4.70;1.05;;;;;;;20.18;50.15;101992.50;8377053;28;20432;-52
2022/10/06 13:15:14;;;;;;;6.80;1.00;;;;;;;20.30;49.75;101980.19;8377588;28;20036;-51
2022/10/06 13:19:20;;;;;;;3.80;0.80;;;;;;;20.23;50.67;101988.25;8372493;28;20040;-50
2022/10/06 13:23:30;;;;;;;4.95;0.93;;;;;;;20.14;50.72;101977.41;8377135;28;20099;-49
2022/10/06 13:27:30;;;;;;;3.72;0.95;;;;;;;20.19;50.72;101980.50;8397215;27;20047;-49
2022/10/06 13:31:33;;;;;;;8.77;1.10;;;;;;;20.19;51.63;101986.00;8343601;28;20045;-53
2022/10/06 13:35:34;;;;;;;5.47;1.00;;;;;;;19.78;53.89;101975.84;8326614;28;20041;-51
2022/10/06 13:39:35;;;;;;;5.43;0.98;;;;;;;19.98;52.50;101974.56;8338447;28;20029;-49
2022/10/06 13:43:41;;;;;;;6.40;1.50;;;;;;;20.05;50.50;101983.84;8326010;28;20123;-51
2022/10/06 13:47:41;;;;;;;4.72;1.00;;;;;;;20.04;51.35;101976.66;8333372;28;20076;-50
2022/10/06 13:51:49;;;;;;;4.30;0.93;;;;;;;19.75;52.41;101978.91;8321658;28;20518;-49
2022/10/06 13:55:49;;;;;;;2.83;0.75;;;;;;;19.90;52.76;101975.41;8325259;28;20033;-51
2022/10/06 14:00:15;;;;;;;6.20;0.98;;;;;;;19.60;53.39;101978.66;8337188;28;20124;-49
2022/10/06 14:04:17;;;;;;;7.65;1.13;;;;;;;19.72;54.41;101976.50;8348699;28;20383;-51
2022/10/06 14:08:23;;;;;;;4.90;0.85;;;;;;;19.75;53.51;101968.81;8349094;28;20049;-49
2022/10/06 14:12:23;;;;;;;5.22;0.80;;;;;;;19.63;53.18;101972.00;8349167;28;20063;-51
2022/10/06 14:16:26;;;;;;;7.68;0.93;;;;;;;19.43;53.22;101972.22;8354287;28;20053;-49
2022/10/06 14:20:47;;;;;;;9.70;1.38;;;;;;;19.66;54.03;101971.66;8335201;28;20128;-51
2022/10/06 14:24:50;;;;;;;5.75;1.27;;;;;;;19.75;52.64;101976.16;8329804;28;20046;-52
2022/10/06 14:28:52;;;;;;;7.35;1.17;;;;;;;19.61;53.24;101972.16;8339536;28;20041;-49
2022/10/06 14:32:52;;;;;;;9.00;1.02;;;;;;;19.58;54.14;101969.75;8323811;28;20091;-51
2022/10/06 14:36:54;;;;;;;8.30;1.40;;;;;;;19.63;52.65;101972.00;8342060;27;20049;-49
2022/10/06 14:40:54;;;;;;;8.07;1.40;;;;;;;19.59;53.86;101965.13;8324465;28;20097;-50
2022/10/06 14:44:55;;;;;;;5.78;1.02;;;;;;;19.54;53.80;101970.25;8332257;28;20044;-48
2022/10/06 14:48:56;;;;;;;5.53;1.05;;;;;;;19.37;52.73;101967.41;8340217;28;20055;-51
2022/10/06 14:52:58;;;;;;;5.47;0.90;;;;;;;19.38;53.03;101963.66;8323505;28;21670;-51
2022/10/06 14:56:59;;;;;;;5.10;0.82;;;;;;;19.33;52.66;101960.53;8328514;28;20720;-50
2022/10/06 15:01:04;;;;;;;6.25;0.93;;;;;;;19.33;53.36;101960.53;8330218;28;20642;-51
2022/10/06 15:05:05;;;;;;;6.55;0.95;;;;;;;19.19;53.40;101955.59;8321524;28;20091;-48
2022/10/06 15:09:07;;;;;;;7.20;0.90;;;;;;;19.12;52.89;101954.50;8319868;28;20045;-49
2022/10/06 15:13:08;;;;;;;4.32;0.80;;;;;;;19.03;53.59;101955.47;8328567;28;20091;-49
2022/10/06 15:17:08;;;;;;;6.45;1.27;;;;;;;18.96;55.38;101950.78;8321529;28;20033;-49
2022/10/06 15:21:10;;;;;;;6.60;1.20;;;;;;;19.04;54.08;101957.22;8337960;28;20048;-50
2022/10/06 15:29:33;;;;;;;6.30;0.98;;;;;;;18.79;54.51;101943.47;8333485;28;20116;-49
2022/10/06 15:33:35;;;;;;;8.00;0.90;;;;;;;18.79;55.05;101949.78;8324055;28;20472;-52
2022/10/06 15:37:38;;;;;;;7.65;1.15;;;;;;;18.77;54.98;101940.91;8325172;28;20037;-52
2022/10/06 15:41:41;;;;;;;4.32;1.00;;;;;;;18.75;54.79;101942.91;8343787;28;20025;-49
2022/10/06 15:45:54;;;;;;;4.10;0.75;;;;;;;18.50;54.80;101932.78;8348014;28;20049;-49
2022/10/06 15:49:54;;;;;;;3.80;0.65;;;;;;;18.51;54.37;101945.44;8334340;28;20056;-50
2022/10/06 15:53:57;;;;;;;5.47;0.75;;;;;;;18.35;56.01;101938.91;8321726;28;20037;-49
2022/10/06 15:57:58;;;;;;;6.07;1.23;;;;;;;18.30;57.22;101942.13;8334374;28;20235;-50
2022/10/06 16:02:03;;;;;;;5.95;0.68;;;;;;;18.03;58.25;101933.09;8326492;28;20042;-52
2022/10/06 16:06:07;;;;;;;10.65;1.05;;;;;;;17.97;58.29;101940.06;8323741;28;20041;-50
2022/10/06 16:10:08;;;;;;;4.30;1.00;;;;;;;17.74;59.39;101937.88;8332366;28;20029;-48
2022/10/06 16:14:09;;;;;;;9.27;1.27;;;;;;;17.74;59.72;101943.34;8350438;28;20044;-49
2022/10/06 16:18:09;;;;;;;8.20;1.13;;;;;;;17.48;60.98;101932.28;8323857;28;20116;-48
2022/10/06 16:22:13;;;;;;;9.05;1.27;;;;;;;17.66;59.21;101930.47;8319458;28;20045;-49
2022/10/06 16:26:13;;;;;;;8.88;1.10;;;;;;;17.45;61.28;101938.03;8323997;28;20037;-50
2022/10/06 16:30:14;;;;;;;3.33;0.68;;;;;;;17.15;62.16;101936.38;8317185;28;20041;-48
2022/10/06 16:34:15;;;;;;;7.40;1.00;;;;;;;16.81;64.32;101931.56;8321695;28;20390;-48
2022/10/06 16:38:15;;;;;;;4.90;0.90;;;;;;;16.60;64.95;101939.06;8316569;28;20039;-49
2022/10/06 16:42:16;;;;;;;4.20;1.45;;;;;;;16.49;65.54;101942.81;8347901;28;20033;-48
2022/10/06 16:46:21;;;;;;;7.70;1.30;;;;;;;16.27;66.54;101937.59;8344282;28;20041;-48
2022/10/06 16:50:22;;;;;;;8.88;1.42;;;;;;;16.07;66.99;101945.91;8322847;28;20448;-49
2022/10/06 16:54:22;;;;;;;5.20;1.38;;;;;;;15.85;68.09;101947.00;8315354;28;20124;-48
2022/10/06 16:58:23;;;;;;;7.25;1.20;;;;;;;15.63;69.08;101953.53;8322634;28;20049;-48
2022/10/06 17:02:24;;;;;;;10.00;1.30;;;;;;;15.33;70.34;101955.38;8319078;28;20050;-49
2022/10/06 17:06:24;;;;;;;4.82;0.98;;;;;;;15.47;70.30;101964.06;8327717;28;20552;-49
2022/10/06 17:10:25;;;;;;;5.15;1.00;;;;;;;15.37;71.15;101956.88;8321653;28;20037;-52
2022/10/06 17:14:29;;;;;;;6.63;0.93;;;;;;;15.05;72.43;101956.09;8354690;28;20045;-52
2022/10/06 17:18:30;;;;;;;8.07;1.43;;;;;;;15.11;72.27;101961.88;8343389;28;20404;-50
2022/10/06 17:22:31;;;;;;;6.57;1.17;;;;;;;14.89;73.74;101952.97;8348426;28;20033;-49
2022/10/06 17:26:34;;;;;;;9.13;1.50;;;;;;;14.62;74.82;101958.94;8354190;28;20043;-48
2022/10/06 17:30:35;;;;;;;8.98;1.60;;;;;;;14.46;75.87;101958.53;8363067;28;20128;-51
2022/10/06 17:34:38;;;;;;;9.07;1.88;;;;;;;14.19;77.70;101949.94;8354452;28;20521;-51
2022/10/06 17:38:42;;;;;;;15.77;2.97;;;;;;;14.10;77.72;101950.72;8355733;28;20037;-49
2022/10/06 17:42:43;;;;;;;8.43;1.70;;;;;;;13.88;78.84;101950.78;8365380;28;20041;-49
2022/10/06 17:46:44;;;;;;;8.52;1.33;;;;;;;13.82;79.36;101963.00;8361509;28;20094;-50
2022/10/06 17:50:55;;;;;;;9.32;1.60;;;;;;;13.81;80.19;101954.97;8361333;28;20086;-52
2022/10/06 17:54:56;;;;;;;7.78;1.83;;;;;;;13.50;80.75;101953.03;8359255;28;20052;-49
2022/10/06 17:58:59;;;;;;;15.80;2.28;;;;;;;13.75;80.37;101966.34;8365369;28;20123;-49
2022/10/06 18:03:00;;;;;;;13.10;4.20;;;;;;;13.59;80.50;101960.44;8358564;28;20083;-48
2022/10/06 18:07:02;;;;;;;15.90;4.40;;;;;;;13.40;81.84;101962.94;8354089;28;20163;-50
2022/10/06 18:11:36;;;;;;;16.00;4.50;;;;;;;13.20;83.18;101952.78;8367303;28;20125;-48
2022/10/06 18:15:24;;;;;;;17.50;7.07;;;;;;;12.82;84.87;101949.50;8383852;28;20040;-48
2022/10/06 18:19:28;;;;;;;14.07;4.35;;;;;;;13.12;83.37;101955.25;8386726;28;20119;-48
2022/10/06 18:23:31;;;;;;;14.55;3.63;;;;;;;12.95;85.01;101959.28;8379033;28;20113;-48
2022/10/06 18:27:32;;;;;;;9.52;2.88;;;;;;;12.49;87.27;101954.81;8371488;28;20083;-49
2022/10/06 18:31:33;;;;;;;7.38;2.40;;;;;;;12.82;87.61;101954.94;8353596;28;20045;-48
2022/10/06 18:35:34;;;;;;;11.00;2.10;;;;;;;13.09;86.30;101955.50;8328124;28;20124;-48
2022/10/06 18:39:34;;;;;;;9.43;2.00;;;;;;;12.66;88.16;101951.69;8346802;28;20037;-51
2022/10/06 18:43:36;;;;;;;7.70;2.00;;;;;;;12.23;90.77;101958.66;8350733;28;20048;-51
2022/10/06 18:49:10;;;;;;;10.27;1.55;;;;;;;12.13;91.95;101963.06;8328955;28;20033;-48
2022/10/06 18:51:57;;;;;;;3.38;1.38;;;;;;;12.06;92.00;101961.78;8324057;28;20562;-49
2022/10/06 18:55:58;;;;;;;11.10;2.33;;;;;;;12.26;89.97;101958.44;8315212;28;20398;-48
2022/10/06 18:59:58;;;;;;;8.73;1.80;;;;;;;12.23;89.93;101958.66;8318965;28;20136;-48
2022/10/06 19:04:03;;;;;;;8.40;1.80;;;;;;;12.31;88.96;101967.06;8320473;28;20116;-50
2022/10/06 19:08:04;;;;;;;11.68;2.63;;;;;;;12.19;90.33;101968.00;8329726;28;20041;-49
2022/10/06 19:12:05;;;;;;;9.13;2.22;;;;;;;12.03;91.28;101968.28;8323891;28;20060;-49
2022/10/06 19:16:05;;;;;;;9.23;3.05;;;;;;;11.97;90.93;101965.16;8317403;28;20192;-48
2022/10/06 19:20:09;;;;;;;12.10;2.40;;;;;;;11.99;91.18;101965.94;8316907;28;20037;-48
2022/10/06 19:24:12;;;;;;;15.50;4.60;;;;;;;11.81;92.84;101969.00;8315839;28;20037;-49
2022/10/06 19:28:12;;;;;;;13.20;4.20;;;;;;;12.04;91.55;101971.88;8319586;28;20064;-49